KENL/ENL METAR and TAF weather

Enter ICAO airport designator
Station Type Date Time Source
KENL METAR 2020/06/01 16:15 UTC NOAA

KENL 011615Z AUTO 18010KT 10SM SCT110 23/10 A3026 RMK AO2 T02310103


Station Type Date Time Source
KENL Decoded METAR 2020/06/01 16:15 UTC NOAA

Centralia, Centralia Municipal Airport, IL, United States (KENL) 38-30-53N 089-05-32W
Jun 01, 2020 - 12:15 PM EDT / 2020.06.01 1615 UTC
Wind: from the S (180 degrees) at 12 MPH (10 KT):0
Visibility: 10 mile(s):0
Sky conditions: partly cloudy
Temperature: 73.6 F (23.1 C)
Dew Point: 50.5 F (10.3 C)
Relative Humidity: 44%
Pressure (altimeter): 30.26 in. Hg (1024 hPa)
ob: KENL 011615Z AUTO 18010KT 10SM SCT110 23/10 A3026 RMK AO2 T02310103
cycle: 16

Station Type Date Time Source
KENL TAF UTC NOAA

Error!

Example: see airport list